sensor_id;sensor_type;location;lat;lon;timestamp;P1;durP1;ratioP1;P2;durP2;ratioP2
39276;SDS011;63149;48.086;-1.606;2022-12-17T06:02:29;32.05;;;14.55;;
39276;SDS011;63149;48.086;-1.606;2022-12-17T06:05:13;22.05;;;13.48;;
39276;SDS011;63149;48.086;-1.606;2022-12-17T06:08:07;36.33;;;14.55;;
39276;SDS011;63149;48.086;-1.606;2022-12-17T06:10:52;31.98;;;14.65;;
39276;SDS011;63149;48.086;-1.606;2022-12-17T06:13:41;29.23;;;14.98;;
39276;SDS011;63149;48.086;-1.606;2022-12-17T06:16:25;33.28;;;14.48;;
39276;SDS011;63149;48.086;-1.606;2022-12-17T06:19:11;29.75;;;14.57;;
39276;SDS011;63149;48.086;-1.606;2022-12-17T06:21:55;32.40;;;14.20;;
39276;SDS011;63149;48.086;-1.606;2022-12-17T06:24:45;30.40;;;13.80;;
39276;SDS011;63149;48.086;-1.606;2022-12-17T06:27:29;29.40;;;13.27;;
39276;SDS011;63149;48.086;-1.606;2022-12-17T06:30:13;29.15;;;14.65;;
39276;SDS011;63149;48.086;-1.606;2022-12-17T06:33:04;27.80;;;13.82;;
39276;SDS011;63149;48.086;-1.606;2022-12-17T06:36:01;28.65;;;15.02;;
39276;SDS011;63149;48.086;-1.606;2022-12-17T06:38:46;32.65;;;14.50;;
39276;SDS011;63149;48.086;-1.606;2022-12-17T06:41:31;27.13;;;15.30;;
39276;SDS011;63149;48.086;-1.606;2022-12-17T06:44:15;37.42;;;18.13;;
39276;SDS011;63149;48.086;-1.606;2022-12-17T06:47:00;43.08;;;18.80;;
39276;SDS011;63149;48.086;-1.606;2022-12-17T06:49:44;42.80;;;20.67;;
39276;SDS011;63149;48.086;-1.606;2022-12-17T06:52:30;53.92;;;24.50;;
39276;SDS011;63149;48.086;-1.606;2022-12-17T06:55:14;55.00;;;23.77;;
39276;SDS011;63149;48.086;-1.606;2022-12-17T06:57:59;58.65;;;24.65;;
39276;SDS011;63149;48.086;-1.606;2022-12-17T07:00:43;48.53;;;24.48;;
39276;SDS011;63149;48.086;-1.606;2022-12-17T07:03:28;55.50;;;24.20;;
39276;SDS011;63149;48.086;-1.606;2022-12-17T07:06:12;49.17;;;23.65;;
39276;SDS011;63149;48.086;-1.606;2022-12-17T07:08:59;47.38;;;24.60;;
39276;SDS011;63149;48.086;-1.606;2022-12-17T07:11:43;64.53;;;25.05;;
39276;SDS011;63149;48.086;-1.606;2022-12-17T07:14:23;53.42;;;26.42;;
39276;SDS011;63149;48.086;-1.606;2022-12-17T07:17:08;52.45;;;25.30;;
39276;SDS011;63149;48.086;-1.606;2022-12-17T07:19:52;67.72;;;26.95;;
39276;SDS011;63149;48.086;-1.606;2022-12-17T07:22:37;61.42;;;27.65;;
39276;SDS011;63149;48.086;-1.606;2022-12-17T07:25:22;66.22;;;28.80;;
39276;SDS011;63149;48.086;-1.606;2022-12-17T07:28:07;66.88;;;29.80;;
39276;SDS011;63149;48.086;-1.606;2022-12-17T07:30:51;74.93;;;30.23;;
39276;SDS011;63149;48.086;-1.606;2022-12-17T07:33:37;67.40;;;29.17;;
39276;SDS011;63149;48.086;-1.606;2022-12-17T07:36:22;73.40;;;28.90;;
39276;SDS011;63149;48.086;-1.606;2022-12-17T07:39:06;90.50;;;32.75;;
39276;SDS011;63149;48.086;-1.606;2022-12-17T07:41:52;85.15;;;32.08;;
39276;SDS011;63149;48.086;-1.606;2022-12-17T07:44:37;83.43;;;32.90;;
39276;SDS011;63149;48.086;-1.606;2022-12-17T07:47:21;101.40;;;34.70;;
39276;SDS011;63149;48.086;-1.606;2022-12-17T07:50:06;93.90;;;32.92;;
39276;SDS011;63149;48.086;-1.606;2022-12-17T07:52:57;95.95;;;35.08;;
39276;SDS011;63149;48.086;-1.606;2022-12-17T07:55:41;100.97;;;33.92;;
39276;SDS011;63149;48.086;-1.606;2022-12-17T07:58:27;100.60;;;34.95;;
39276;SDS011;63149;48.086;-1.606;2022-12-17T08:01:11;101.50;;;35.33;;
39276;SDS011;63149;48.086;-1.606;2022-12-17T08:03:55;100.10;;;33.92;;
39276;SDS011;63149;48.086;-1.606;2022-12-17T08:06:40;97.80;;;33.35;;
39276;SDS011;63149;48.086;-1.606;2022-12-17T08:09:24;105.18;;;35.95;;
39276;SDS011;63149;48.086;-1.606;2022-12-17T08:12:08;108.25;;;33.97;;
39276;SDS011;63149;48.086;-1.606;2022-12-17T08:14:54;96.65;;;32.83;;
39276;SDS011;63149;48.086;-1.606;2022-12-17T08:17:38;100.07;;;31.40;;
39276;SDS011;63149;48.086;-1.606;2022-12-17T08:20:19;97.03;;;32.13;;
39276;SDS011;63149;48.086;-1.606;2022-12-17T08:23:03;104.32;;;32.10;;
39276;SDS011;63149;48.086;-1.606;2022-12-17T08:25:48;97.68;;;33.88;;
39276;SDS011;63149;48.086;-1.606;2022-12-17T08:28:32;98.95;;;31.65;;
39276;SDS011;63149;48.086;-1.606;2022-12-17T08:31:19;95.95;;;31.25;;
39276;SDS011;63149;48.086;-1.606;2022-12-17T08:34:05;97.85;;;31.67;;
39276;SDS011;63149;48.086;-1.606;2022-12-17T08:36:50;97.30;;;33.40;;
39276;SDS011;63149;48.086;-1.606;2022-12-17T08:39:34;95.88;;;32.50;;
39276;SDS011;63149;48.086;-1.606;2022-12-17T08:42:19;109.72;;;34.88;;
39276;SDS011;63149;48.086;-1.606;2022-12-17T08:45:04;103.72;;;33.03;;
39276;SDS011;63149;48.086;-1.606;2022-12-17T08:47:50;94.45;;;31.15;;
39276;SDS011;63149;48.086;-1.606;2022-12-17T08:50:35;98.05;;;33.05;;
39276;SDS011;63149;48.086;-1.606;2022-12-17T08:53:19;94.32;;;30.70;;
39276;SDS011;63149;48.086;-1.606;2022-12-17T08:56:04;92.22;;;32.40;;
39276;SDS011;63149;48.086;-1.606;2022-12-17T08:59:00;105.38;;;33.75;;
39276;SDS011;63149;48.086;-1.606;2022-12-17T09:01:45;96.80;;;31.52;;
39276;SDS011;63149;48.086;-1.606;2022-12-17T09:04:30;95.85;;;35.00;;
39276;SDS011;63149;48.086;-1.606;2022-12-17T09:07:15;93.47;;;31.45;;
39276;SDS011;63149;48.086;-1.606;2022-12-17T09:09:59;101.28;;;33.50;;
39276;SDS011;63149;48.086;-1.606;2022-12-17T09:12:44;87.32;;;31.40;;
39276;SDS011;63149;48.086;-1.606;2022-12-17T09:15:28;86.25;;;32.13;;
39276;SDS011;63149;48.086;-1.606;2022-12-17T09:18:17;89.85;;;31.90;;
39276;SDS011;63149;48.086;-1.606;2022-12-17T09:21:03;88.55;;;31.13;;
39276;SDS011;63149;48.086;-1.606;2022-12-17T09:23:48;90.97;;;33.08;;
39276;SDS011;63149;48.086;-1.606;2022-12-17T09:26:32;89.28;;;31.73;;
39276;SDS011;63149;48.086;-1.606;2022-12-17T09:29:17;97.78;;;35.80;;
39276;SDS011;63149;48.086;-1.606;2022-12-17T09:32:01;87.65;;;31.83;;
39276;SDS011;63149;48.086;-1.606;2022-12-17T09:34:46;90.57;;;31.40;;
39276;SDS011;63149;48.086;-1.606;2022-12-17T09:37:31;81.65;;;30.42;;
39276;SDS011;63149;48.086;-1.606;2022-12-17T09:40:17;77.53;;;30.83;;
39276;SDS011;63149;48.086;-1.606;2022-12-17T09:43:05;68.55;;;26.98;;
39276;SDS011;63149;48.086;-1.606;2022-12-17T09:46:03;72.35;;;28.42;;
39276;SDS011;63149;48.086;-1.606;2022-12-17T09:48:54;54.25;;;19.80;;
39276;SDS011;63149;48.086;-1.606;2022-12-17T09:51:43;75.85;;;26.80;;
39276;SDS011;63149;48.086;-1.606;2022-12-17T09:54:30;64.00;;;24.75;;
39276;SDS011;63149;48.086;-1.606;2022-12-17T09:57:17;67.70;;;26.50;;
39276;SDS011;63149;48.086;-1.606;2022-12-17T10:00:08;62.75;;;24.92;;
39276;SDS011;63149;48.086;-1.606;2022-12-17T10:02:57;74.80;;;26.92;;
39276;SDS011;63149;48.086;-1.606;2022-12-17T10:05:41;66.60;;;24.67;;
39276;SDS011;63149;48.086;-1.606;2022-12-17T10:08:27;59.00;;;23.33;;
39276;SDS011;63149;48.086;-1.606;2022-12-17T10:11:17;61.15;;;24.73;;
39276;SDS011;63149;48.086;-1.606;2022-12-17T10:14:03;62.35;;;25.42;;
39276;SDS011;63149;48.086;-1.606;2022-12-17T10:16:56;64.13;;;25.65;;
39276;SDS011;63149;48.086;-1.606;2022-12-17T10:19:40;62.30;;;25.15;;
39276;SDS011;63149;48.086;-1.606;2022-12-17T10:22:25;62.33;;;25.17;;
39276;SDS011;63149;48.086;-1.606;2022-12-17T10:25:13;56.35;;;24.00;;
39276;SDS011;63149;48.086;-1.606;2022-12-17T10:28:00;56.92;;;24.35;;
39276;SDS011;63149;48.086;-1.606;2022-12-17T10:30:47;59.45;;;23.42;;
39276;SDS011;63149;48.086;-1.606;2022-12-17T10:33:43;59.22;;;23.98;;
39276;SDS011;63149;48.086;-1.606;2022-12-17T10:36:29;55.92;;;22.13;;
39276;SDS011;63149;48.086;-1.606;2022-12-17T10:39:15;59.20;;;23.40;;
39276;SDS011;63149;48.086;-1.606;2022-12-17T10:42:01;59.55;;;24.02;;
39276;SDS011;63149;48.086;-1.606;2022-12-17T10:44:46;59.67;;;23.77;;
39276;SDS011;63149;48.086;-1.606;2022-12-17T10:47:32;54.35;;;23.52;;
39276;SDS011;63149;48.086;-1.606;2022-12-17T10:50:17;59.65;;;25.02;;
39276;SDS011;63149;48.086;-1.606;2022-12-17T10:53:15;57.95;;;23.52;;
39276;SDS011;63149;48.086;-1.606;2022-12-17T10:56:03;55.33;;;23.23;;
39276;SDS011;63149;48.086;-1.606;2022-12-17T10:58:49;53.10;;;23.63;;
39276;SDS011;63149;48.086;-1.606;2022-12-17T11:01:52;61.63;;;23.52;;
39276;SDS011;63149;48.086;-1.606;2022-12-17T11:04:49;57.15;;;24.73;;
39276;SDS011;63149;48.086;-1.606;2022-12-17T11:07:35;59.55;;;25.48;;
39276;SDS011;63149;48.086;-1.606;2022-12-17T11:10:23;57.78;;;23.77;;
39276;SDS011;63149;48.086;-1.606;2022-12-17T11:13:10;58.92;;;25.52;;
39276;SDS011;63149;48.086;-1.606;2022-12-17T11:15:58;55.45;;;23.40;;
39276;SDS011;63149;48.086;-1.606;2022-12-17T11:19:01;53.85;;;22.67;;
39276;SDS011;63149;48.086;-1.606;2022-12-17T11:24:47;51.65;;;23.33;;
39276;SDS011;63149;48.086;-1.606;2022-12-17T11:27:41;56.22;;;24.58;;
39276;SDS011;63149;48.086;-1.606;2022-12-17T11:30:28;47.13;;;21.15;;
39276;SDS011;63149;48.086;-1.606;2022-12-17T11:33:15;55.63;;;23.52;;
39276;SDS011;63149;48.086;-1.606;2022-12-17T11:36:07;55.38;;;23.63;;
39276;SDS011;63149;48.086;-1.606;2022-12-17T11:38:59;53.83;;;22.88;;
39276;SDS011;63149;48.086;-1.606;2022-12-17T11:41:52;49.92;;;22.58;;
39276;SDS011;63149;48.086;-1.606;2022-12-17T11:44:44;54.15;;;23.73;;
39276;SDS011;63149;48.086;-1.606;2022-12-17T11:47:36;51.03;;;23.30;;
39276;SDS011;63149;48.086;-1.606;2022-12-17T11:50:27;53.45;;;23.50;;
39276;SDS011;63149;48.086;-1.606;2022-12-17T11:53:21;50.50;;;22.52;;
39276;SDS011;63149;48.086;-1.606;2022-12-17T11:56:20;53.05;;;23.63;;
39276;SDS011;63149;48.086;-1.606;2022-12-17T11:59:10;51.38;;;23.95;;
39276;SDS011;63149;48.086;-1.606;2022-12-17T12:02:02;39.67;;;19.05;;
39276;SDS011;63149;48.086;-1.606;2022-12-17T12:05:01;49.53;;;22.65;;
39276;SDS011;63149;48.086;-1.606;2022-12-17T12:07:58;51.85;;;24.50;;
39276;SDS011;63149;48.086;-1.606;2022-12-17T12:10:54;49.38;;;23.60;;
39276;SDS011;63149;48.086;-1.606;2022-12-17T12:13:46;50.03;;;23.63;;
39276;SDS011;63149;48.086;-1.606;2022-12-17T12:16:40;45.72;;;22.75;;
39276;SDS011;63149;48.086;-1.606;2022-12-17T12:19:33;45.45;;;22.80;;
39276;SDS011;63149;48.086;-1.606;2022-12-17T12:22:29;41.38;;;21.17;;
39276;SDS011;63149;48.086;-1.606;2022-12-17T12:25:23;36.85;;;20.05;;
39276;SDS011;63149;48.086;-1.606;2022-12-17T12:28:18;38.95;;;21.40;;
39276;SDS011;63149;48.086;-1.606;2022-12-17T12:31:12;33.13;;;19.58;;
39276;SDS011;63149;48.086;-1.606;2022-12-17T12:34:05;34.33;;;20.23;;
39276;SDS011;63149;48.086;-1.606;2022-12-17T12:36:53;39.05;;;21.58;;
39276;SDS011;63149;48.086;-1.606;2022-12-17T12:39:43;37.45;;;20.65;;
39276;SDS011;63149;48.086;-1.606;2022-12-17T12:42:35;40.95;;;22.60;;
39276;SDS011;63149;48.086;-1.606;2022-12-17T12:45:34;36.28;;;20.60;;
39276;SDS011;63149;48.086;-1.606;2022-12-17T12:48:32;37.45;;;21.25;;
39276;SDS011;63149;48.086;-1.606;2022-12-17T12:51:22;36.15;;;21.15;;
39276;SDS011;63149;48.086;-1.606;2022-12-17T12:54:25;34.08;;;19.38;;
39276;SDS011;63149;48.086;-1.606;2022-12-17T12:57:27;30.92;;;18.77;;
39276;SDS011;63149;48.086;-1.606;2022-12-17T13:00:32;31.38;;;19.17;;
39276;SDS011;63149;48.086;-1.606;2022-12-17T13:03:28;35.10;;;20.40;;
39276;SDS011;63149;48.086;-1.606;2022-12-17T13:06:36;34.45;;;20.02;;
39276;SDS011;63149;48.086;-1.606;2022-12-17T13:09:28;30.83;;;19.98;;
39276;SDS011;63149;48.086;-1.606;2022-12-17T13:12:07;32.47;;;19.75;;
39276;SDS011;63149;48.086;-1.606;2022-12-17T13:14:43;32.42;;;19.42;;
39276;SDS011;63149;48.086;-1.606;2022-12-17T13:17:23;35.75;;;20.80;;
39276;SDS011;63149;48.086;-1.606;2022-12-17T13:20:19;35.38;;;20.15;;
39276;SDS011;63149;48.086;-1.606;2022-12-17T13:22:49;34.35;;;20.10;;
39276;SDS011;63149;48.086;-1.606;2022-12-17T13:25:18;32.33;;;18.77;;
39276;SDS011;63149;48.086;-1.606;2022-12-17T13:27:47;35.50;;;20.67;;
39276;SDS011;63149;48.086;-1.606;2022-12-17T13:30:20;34.40;;;19.75;;
39276;SDS011;63149;48.086;-1.606;2022-12-17T13:33:01;33.53;;;18.67;;
39276;SDS011;63149;48.086;-1.606;2022-12-17T13:35:41;36.58;;;21.15;;
39276;SDS011;63149;48.086;-1.606;2022-12-17T13:38:15;36.75;;;21.33;;
39276;SDS011;63149;48.086;-1.606;2022-12-17T13:40:54;33.45;;;19.63;;
39276;SDS011;63149;48.086;-1.606;2022-12-17T13:43:30;38.45;;;21.30;;
39276;SDS011;63149;48.086;-1.606;2022-12-17T13:46:03;37.97;;;19.50;;
39276;SDS011;63149;48.086;-1.606;2022-12-17T13:48:32;36.63;;;19.90;;
39276;SDS011;63149;48.086;-1.606;2022-12-17T13:50:59;37.72;;;20.27;;
39276;SDS011;63149;48.086;-1.606;2022-12-17T13:53:28;39.38;;;20.48;;
39276;SDS011;63149;48.086;-1.606;2022-12-17T13:55:58;39.78;;;20.95;;
39276;SDS011;63149;48.086;-1.606;2022-12-17T13:58:26;37.80;;;19.45;;
39276;SDS011;63149;48.086;-1.606;2022-12-17T14:01:04;39.90;;;20.45;;
39276;SDS011;63149;48.086;-1.606;2022-12-17T14:03:34;35.33;;;18.58;;
39276;SDS011;63149;48.086;-1.606;2022-12-17T14:06:01;36.90;;;18.65;;
39276;SDS011;63149;48.086;-1.606;2022-12-17T14:08:30;37.58;;;19.58;;
39276;SDS011;63149;48.086;-1.606;2022-12-17T14:10:58;43.42;;;19.52;;
39276;SDS011;63149;48.086;-1.606;2022-12-17T14:13:40;39.90;;;19.00;;
39276;SDS011;63149;48.086;-1.606;2022-12-17T14:16:09;40.28;;;20.20;;
39276;SDS011;63149;48.086;-1.606;2022-12-17T14:18:42;43.83;;;20.95;;
39276;SDS011;63149;48.086;-1.606;2022-12-17T14:23:38;43.70;;;20.60;;
39276;SDS011;63149;48.086;-1.606;2022-12-17T14:26:07;39.92;;;18.73;;
39276;SDS011;63149;48.086;-1.606;2022-12-17T14:28:35;43.33;;;20.02;;
39276;SDS011;63149;48.086;-1.606;2022-12-17T14:31:14;45.80;;;20.95;;
39276;SDS011;63149;48.086;-1.606;2022-12-17T14:33:45;43.42;;;19.15;;
39276;SDS011;63149;48.086;-1.606;2022-12-17T14:36:16;40.30;;;19.85;;
39276;SDS011;63149;48.086;-1.606;2022-12-17T14:38:50;44.22;;;20.50;;
39276;SDS011;63149;48.086;-1.606;2022-12-17T14:41:19;42.95;;;20.65;;
39276;SDS011;63149;48.086;-1.606;2022-12-17T14:44:04;41.55;;;19.05;;
39276;SDS011;63149;48.086;-1.606;2022-12-17T14:46:32;40.90;;;19.67;;
39276;SDS011;63149;48.086;-1.606;2022-12-17T14:49:02;41.10;;;20.15;;
39276;SDS011;63149;48.086;-1.606;2022-12-17T14:51:31;44.20;;;20.45;;
39276;SDS011;63149;48.086;-1.606;2022-12-17T14:54:15;45.22;;;20.95;;
39276;SDS011;63149;48.086;-1.606;2022-12-17T14:56:45;41.50;;;19.10;;
39276;SDS011;63149;48.086;-1.606;2022-12-17T14:59:23;43.72;;;18.48;;
39276;SDS011;63149;48.086;-1.606;2022-12-17T15:01:52;42.03;;;19.90;;
39276;SDS011;63149;48.086;-1.606;2022-12-17T15:04:21;44.00;;;19.88;;
39276;SDS011;63149;48.086;-1.606;2022-12-17T15:06:48;42.08;;;19.70;;
39276;SDS011;63149;48.086;-1.606;2022-12-17T15:09:18;40.65;;;18.98;;
39276;SDS011;63149;48.086;-1.606;2022-12-17T15:11:45;43.28;;;19.75;;
39276;SDS011;63149;48.086;-1.606;2022-12-17T15:14:13;41.85;;;19.40;;
39276;SDS011;63149;48.086;-1.606;2022-12-17T15:16:40;42.20;;;19.35;;
39276;SDS011;63149;48.086;-1.606;2022-12-17T15:19:07;39.75;;;18.30;;
39276;SDS011;63149;48.086;-1.606;2022-12-17T15:21:35;40.70;;;18.73;;
39276;SDS011;63149;48.086;-1.606;2022-12-17T15:24:02;44.53;;;19.88;;
39276;SDS011;63149;48.086;-1.606;2022-12-17T15:26:31;41.05;;;18.50;;
39276;SDS011;63149;48.086;-1.606;2022-12-17T15:28:58;40.95;;;19.02;;
39276;SDS011;63149;48.086;-1.606;2022-12-17T15:31:26;38.65;;;18.75;;
39276;SDS011;63149;48.086;-1.606;2022-12-17T15:33:53;47.45;;;20.33;;
39276;SDS011;63149;48.086;-1.606;2022-12-17T15:36:20;41.22;;;19.60;;
39276;SDS011;63149;48.086;-1.606;2022-12-17T15:38:49;40.80;;;19.25;;
39276;SDS011;63149;48.086;-1.606;2022-12-17T15:41:16;44.83;;;21.77;;
39276;SDS011;63149;48.086;-1.606;2022-12-17T15:44:00;48.33;;;20.40;;
39276;SDS011;63149;48.086;-1.606;2022-12-17T15:46:27;45.80;;;21.05;;
39276;SDS011;63149;48.086;-1.606;2022-12-17T15:48:54;45.35;;;20.77;;
39276;SDS011;63149;48.086;-1.606;2022-12-17T15:51:21;42.95;;;19.98;;
39276;SDS011;63149;48.086;-1.606;2022-12-17T15:53:50;41.75;;;19.83;;
39276;SDS011;63149;48.086;-1.606;2022-12-17T15:56:17;50.38;;;22.27;;
39276;SDS011;63149;48.086;-1.606;2022-12-17T15:58:46;44.00;;;19.50;;
39276;SDS011;63149;48.086;-1.606;2022-12-17T16:01:12;54.03;;;21.17;;
39276;SDS011;63149;48.086;-1.606;2022-12-17T16:03:40;45.50;;;21.02;;
39276;SDS011;63149;48.086;-1.606;2022-12-17T16:06:07;42.42;;;18.98;;
39276;SDS011;63149;48.086;-1.606;2022-12-17T16:08:35;42.78;;;19.38;;
39276;SDS011;63149;48.086;-1.606;2022-12-17T16:11:06;40.90;;;19.63;;
39276;SDS011;63149;48.086;-1.606;2022-12-17T16:13:33;45.20;;;19.88;;
39276;SDS011;63149;48.086;-1.606;2022-12-17T16:16:00;45.97;;;20.58;;
39276;SDS011;63149;48.086;-1.606;2022-12-17T16:18:27;41.40;;;18.98;;
39276;SDS011;63149;48.086;-1.606;2022-12-17T16:20:59;43.03;;;20.13;;
39276;SDS011;63149;48.086;-1.606;2022-12-17T16:23:26;38.35;;;18.67;;
39276;SDS011;63149;48.086;-1.606;2022-12-17T16:25:54;48.33;;;21.65;;
39276;SDS011;63149;48.086;-1.606;2022-12-17T16:28:24;50.35;;;23.38;;
39276;SDS011;63149;48.086;-1.606;2022-12-17T16:30:58;52.53;;;22.10;;
39276;SDS011;63149;48.086;-1.606;2022-12-17T16:33:26;48.05;;;22.08;;
39276;SDS011;63149;48.086;-1.606;2022-12-17T16:35:56;31.42;;;15.30;;
39276;SDS011;63149;48.086;-1.606;2022-12-17T16:38:23;50.67;;;23.27;;
39276;SDS011;63149;48.086;-1.606;2022-12-17T16:40:52;46.50;;;22.35;;
39276;SDS011;63149;48.086;-1.606;2022-12-17T16:43:20;38.80;;;18.23;;
39276;SDS011;63149;48.086;-1.606;2022-12-17T16:45:49;47.60;;;22.00;;
39276;SDS011;63149;48.086;-1.606;2022-12-17T16:48:17;49.72;;;22.27;;
39276;SDS011;63149;48.086;-1.606;2022-12-17T16:50:45;51.28;;;24.40;;
39276;SDS011;63149;48.086;-1.606;2022-12-17T16:53:12;49.42;;;23.13;;
39276;SDS011;63149;48.086;-1.606;2022-12-17T16:55:39;48.92;;;24.75;;
39276;SDS011;63149;48.086;-1.606;2022-12-17T16:58:07;49.15;;;24.23;;
39276;SDS011;63149;48.086;-1.606;2022-12-17T17:00:34;49.25;;;22.75;;
39276;SDS011;63149;48.086;-1.606;2022-12-17T17:03:04;48.78;;;23.98;;
39276;SDS011;63149;48.086;-1.606;2022-12-17T17:05:31;44.13;;;22.10;;
39276;SDS011;63149;48.086;-1.606;2022-12-17T17:07:59;49.92;;;23.42;;
39276;SDS011;63149;48.086;-1.606;2022-12-17T17:10:26;47.03;;;23.52;;
39276;SDS011;63149;48.086;-1.606;2022-12-17T17:12:54;49.05;;;23.85;;
39276;SDS011;63149;48.086;-1.606;2022-12-17T17:15:21;49.92;;;22.33;;
39276;SDS011;63149;48.086;-1.606;2022-12-17T17:17:49;47.55;;;22.67;;
39276;SDS011;63149;48.086;-1.606;2022-12-17T17:20:17;46.00;;;22.33;;
39276;SDS011;63149;48.086;-1.606;2022-12-17T17:22:44;48.47;;;23.30;;
39276;SDS011;63149;48.086;-1.606;2022-12-17T17:25:11;55.80;;;24.58;;
39276;SDS011;63149;48.086;-1.606;2022-12-17T17:27:38;54.33;;;24.92;;
39276;SDS011;63149;48.086;-1.606;2022-12-17T17:30:06;50.78;;;24.83;;
39276;SDS011;63149;48.086;-1.606;2022-12-17T17:32:33;49.58;;;24.42;;
39276;SDS011;63149;48.086;-1.606;2022-12-17T17:35:00;51.00;;;22.65;;
39276;SDS011;63149;48.086;-1.606;2022-12-17T17:37:29;46.00;;;24.00;;
39276;SDS011;63149;48.086;-1.606;2022-12-17T17:39:56;46.63;;;24.40;;
39276;SDS011;63149;48.086;-1.606;2022-12-17T17:42:23;54.17;;;24.88;;
39276;SDS011;63149;48.086;-1.606;2022-12-17T17:44:50;50.50;;;24.73;;
39276;SDS011;63149;48.086;-1.606;2022-12-17T17:47:17;48.92;;;24.67;;
39276;SDS011;63149;48.086;-1.606;2022-12-17T17:49:44;53.65;;;25.17;;
39276;SDS011;63149;48.086;-1.606;2022-12-17T17:52:10;49.88;;;24.85;;
39276;SDS011;63149;48.086;-1.606;2022-12-17T17:54:39;50.67;;;24.50;;
39276;SDS011;63149;48.086;-1.606;2022-12-17T17:57:07;51.90;;;24.83;;
39276;SDS011;63149;48.086;-1.606;2022-12-17T17:59:34;50.88;;;24.42;;
39276;SDS011;63149;48.086;-1.606;2022-12-17T18:02:03;51.78;;;26.35;;
39276;SDS011;63149;48.086;-1.606;2022-12-17T18:04:30;53.60;;;25.75;;
39276;SDS011;63149;48.086;-1.606;2022-12-17T18:06:57;52.28;;;25.50;;
39276;SDS011;63149;48.086;-1.606;2022-12-17T18:09:24;48.85;;;25.15;;
39276;SDS011;63149;48.086;-1.606;2022-12-17T18:11:53;50.78;;;26.95;;
39276;SDS011;63149;48.086;-1.606;2022-12-17T18:14:20;52.30;;;24.67;;
39276;SDS011;63149;48.086;-1.606;2022-12-17T18:16:46;46.85;;;24.75;;
39276;SDS011;63149;48.086;-1.606;2022-12-17T18:19:14;48.45;;;23.98;;
39276;SDS011;63149;48.086;-1.606;2022-12-17T18:21:42;48.50;;;24.63;;
39276;SDS011;63149;48.086;-1.606;2022-12-17T18:24:10;47.85;;;23.70;;
39276;SDS011;63149;48.086;-1.606;2022-12-17T18:26:40;46.83;;;23.38;;
39276;SDS011;63149;48.086;-1.606;2022-12-17T18:29:10;47.67;;;24.55;;
39276;SDS011;63149;48.086;-1.606;2022-12-17T18:31:39;46.17;;;24.08;;
39276;SDS011;63149;48.086;-1.606;2022-12-17T18:34:06;51.47;;;24.40;;
39276;SDS011;63149;48.086;-1.606;2022-12-17T18:36:36;51.22;;;24.30;;
39276;SDS011;63149;48.086;-1.606;2022-12-17T18:39:06;50.25;;;24.08;;
39276;SDS011;63149;48.086;-1.606;2022-12-17T18:41:34;48.80;;;24.98;;
39276;SDS011;63149;48.086;-1.606;2022-12-17T18:44:19;43.90;;;22.58;;
39276;SDS011;63149;48.086;-1.606;2022-12-17T18:46:47;46.83;;;24.13;;
39276;SDS011;63149;48.086;-1.606;2022-12-17T18:49:15;47.20;;;23.13;;
39276;SDS011;63149;48.086;-1.606;2022-12-17T18:51:44;47.20;;;24.88;;
39276;SDS011;63149;48.086;-1.606;2022-12-17T18:54:13;44.28;;;21.35;;
39276;SDS011;63149;48.086;-1.606;2022-12-17T18:56:41;45.25;;;22.80;;
39276;SDS011;63149;48.086;-1.606;2022-12-17T18:59:09;42.28;;;21.77;;
39276;SDS011;63149;48.086;-1.606;2022-12-17T19:01:39;44.20;;;21.45;;
39276;SDS011;63149;48.086;-1.606;2022-12-17T19:04:08;35.83;;;17.60;;
39276;SDS011;63149;48.086;-1.606;2022-12-17T19:06:37;44.95;;;20.92;;
39276;SDS011;63149;48.086;-1.606;2022-12-17T19:09:04;40.78;;;21.45;;
39276;SDS011;63149;48.086;-1.606;2022-12-17T19:11:33;43.15;;;22.20;;
39276;SDS011;63149;48.086;-1.606;2022-12-17T19:14:01;45.63;;;21.90;;
39276;SDS011;63149;48.086;-1.606;2022-12-17T19:16:28;43.33;;;20.98;;
39276;SDS011;63149;48.086;-1.606;2022-12-17T19:18:57;38.72;;;20.65;;
39276;SDS011;63149;48.086;-1.606;2022-12-17T19:21:26;40.58;;;21.15;;
39276;SDS011;63149;48.086;-1.606;2022-12-17T19:23:54;40.50;;;21.15;;
39276;SDS011;63149;48.086;-1.606;2022-12-17T19:26:23;42.13;;;21.23;;
39276;SDS011;63149;48.086;-1.606;2022-12-17T19:28:51;44.50;;;20.70;;
39276;SDS011;63149;48.086;-1.606;2022-12-17T19:31:20;45.67;;;22.42;;
39276;SDS011;63149;48.086;-1.606;2022-12-17T19:33:52;43.50;;;21.67;;
39276;SDS011;63149;48.086;-1.606;2022-12-17T19:36:21;46.00;;;21.83;;
39276;SDS011;63149;48.086;-1.606;2022-12-17T19:38:50;46.83;;;23.02;;
39276;SDS011;63149;48.086;-1.606;2022-12-17T19:41:17;43.45;;;21.27;;
39276;SDS011;63149;48.086;-1.606;2022-12-17T19:43:45;44.53;;;22.50;;
39276;SDS011;63149;48.086;-1.606;2022-12-17T19:46:14;50.13;;;22.30;;
39276;SDS011;63149;48.086;-1.606;2022-12-17T19:48:43;42.25;;;21.90;;
39276;SDS011;63149;48.086;-1.606;2022-12-17T19:51:12;44.35;;;22.15;;
39276;SDS011;63149;48.086;-1.606;2022-12-17T19:53:42;44.55;;;21.92;;
39276;SDS011;63149;48.086;-1.606;2022-12-17T19:56:11;49.38;;;23.13;;
39276;SDS011;63149;48.086;-1.606;2022-12-17T19:58:39;48.88;;;23.10;;
39276;SDS011;63149;48.086;-1.606;2022-12-17T20:01:06;42.40;;;21.88;;
39276;SDS011;63149;48.086;-1.606;2022-12-17T20:03:34;46.97;;;22.00;;
39276;SDS011;63149;48.086;-1.606;2022-12-17T20:06:02;45.70;;;22.38;;
39276;SDS011;63149;48.086;-1.606;2022-12-17T20:08:29;47.70;;;23.98;;
39276;SDS011;63149;48.086;-1.606;2022-12-17T20:10:58;47.80;;;22.30;;
39276;SDS011;63149;48.086;-1.606;2022-12-17T20:13:26;46.88;;;21.23;;
39276;SDS011;63149;48.086;-1.606;2022-12-17T20:16:03;43.13;;;21.80;;
39276;SDS011;63149;48.086;-1.606;2022-12-17T20:18:30;46.30;;;22.70;;
39276;SDS011;63149;48.086;-1.606;2022-12-17T20:21:01;45.63;;;21.70;;
39276;SDS011;63149;48.086;-1.606;2022-12-17T20:23:28;49.03;;;23.45;;
39276;SDS011;63149;48.086;-1.606;2022-12-17T20:26:03;46.30;;;21.20;;
39276;SDS011;63149;48.086;-1.606;2022-12-17T20:28:32;39.35;;;19.77;;
39276;SDS011;63149;48.086;-1.606;2022-12-17T20:30:59;46.03;;;21.50;;
39276;SDS011;63149;48.086;-1.606;2022-12-17T20:33:27;45.80;;;21.38;;
39276;SDS011;63149;48.086;-1.606;2022-12-17T20:35:54;48.20;;;22.85;;
39276;SDS011;63149;48.086;-1.606;2022-12-17T20:38:21;49.90;;;24.08;;
39276;SDS011;63149;48.086;-1.606;2022-12-17T20:40:48;44.38;;;21.13;;
39276;SDS011;63149;48.086;-1.606;2022-12-17T20:43:16;52.28;;;23.15;;
39276;SDS011;63149;48.086;-1.606;2022-12-17T20:45:47;47.75;;;22.60;;
39276;SDS011;63149;48.086;-1.606;2022-12-17T20:48:14;48.47;;;22.70;;
39276;SDS011;63149;48.086;-1.606;2022-12-17T20:50:41;47.28;;;22.45;;
39276;SDS011;63149;48.086;-1.606;2022-12-17T20:53:08;46.00;;;22.80;;
39276;SDS011;63149;48.086;-1.606;2022-12-17T20:55:35;48.38;;;23.63;;
39276;SDS011;63149;48.086;-1.606;2022-12-17T20:58:02;51.15;;;23.00;;
39276;SDS011;63149;48.086;-1.606;2022-12-17T21:00:31;46.08;;;21.88;;
39276;SDS011;63149;48.086;-1.606;2022-12-17T21:02:58;49.45;;;23.13;;
39276;SDS011;63149;48.086;-1.606;2022-12-17T21:05:26;51.17;;;23.23;;
39276;SDS011;63149;48.086;-1.606;2022-12-17T21:07:53;53.42;;;24.50;;
39276;SDS011;63149;48.086;-1.606;2022-12-17T21:10:20;51.60;;;23.42;;
39276;SDS011;63149;48.086;-1.606;2022-12-17T21:12:47;52.80;;;24.23;;
39276;SDS011;63149;48.086;-1.606;2022-12-17T21:15:32;52.30;;;23.08;;